createdAt,value
2023-10-10T00:45:49.889Z,16.23
2023-10-10T00:54:10.936Z,17.58
2023-10-10T00:57:18.945Z,16.58
2023-10-10T01:51:46.695Z,16.25
2023-10-10T01:54:20.216Z,17.15
2023-10-10T01:56:55.551Z,17.02
2023-10-10T02:23:11.784Z,18.98
2023-10-10T02:40:14.881Z,20.15
2023-10-10T02:43:25.730Z,19.35
2023-10-10T02:46:21.110Z,20.52
2023-10-10T02:49:31.519Z,19.95
2023-10-10T02:52:07.557Z,19.25
2023-10-10T02:55:18.979Z,19.15
2023-10-10T02:58:29.484Z,19.38
2023-10-10T03:01:15.171Z,18.70
2023-10-10T03:04:43.868Z,19.60
2023-10-10T03:07:43.717Z,20.25
2023-10-10T03:10:24.264Z,18.80
2023-10-10T03:54:41.010Z,23.80
2023-10-10T03:57:39.904Z,24.50
2023-10-10T04:00:34.007Z,25.90
2023-10-10T04:03:23.393Z,23.20
2023-10-10T04:06:12.293Z,20.20
2023-10-10T04:08:58.115Z,19.70
2023-10-10T04:11:47.289Z,18.20
2023-10-10T04:18:09.138Z,19.60
2023-10-10T04:21:08.185Z,21.90
2023-10-10T04:23:54.236Z,18.65
2023-10-10T04:26:42.840Z,18.67
2023-10-10T04:29:39.757Z,17.23
2023-10-10T04:32:26.644Z,17.63
2023-10-10T04:35:13.040Z,18.77
2023-10-10T04:38:17.837Z,19.38
2023-10-10T04:41:06.939Z,19.13
2023-10-10T04:43:55.610Z,20.98
2023-10-10T04:46:41.658Z,20.25
2023-10-10T04:49:27.297Z,20.85
2023-10-10T04:52:13.139Z,21.20
2023-10-10T04:54:58.482Z,22.05
2023-10-10T04:57:47.260Z,19.40
2023-10-10T05:03:52.257Z,21.13
2023-10-10T05:06:38.365Z,20.88
2023-10-10T05:09:25.640Z,21.67
2023-10-10T05:12:23.501Z,21.92
2023-10-10T05:15:09.107Z,22.20
2023-10-10T05:17:54.518Z,19.75
2023-10-10T05:20:40.491Z,19.00
2023-10-10T05:23:26.514Z,17.35
2023-10-10T05:25:54.389Z,17.85
2023-10-10T05:28:22.362Z,16.73
2023-10-10T05:30:50.170Z,17.10
2023-10-10T05:33:20.999Z,16.73
2023-10-10T05:35:59.745Z,17.63
2023-10-10T05:38:27.817Z,20.02
2023-10-10T05:41:00.290Z,17.45
2023-10-10T05:43:37.536Z,17.80
2023-10-10T05:46:07.746Z,17.17
2023-10-10T05:48:41.971Z,18.60
2023-10-10T05:51:14.473Z,16.65
2023-10-10T05:53:41.943Z,16.98
2023-10-10T05:56:17.884Z,15.27
2023-10-10T05:58:48.599Z,16.33
2023-10-10T06:01:18.490Z,15.70
2023-10-10T06:03:47.330Z,16.05
2023-10-10T06:06:16.869Z,16.70
2023-10-10T06:08:49.143Z,15.38
2023-10-10T06:17:50.369Z,14.90
2023-10-10T06:20:23.398Z,12.30
2023-10-10T06:22:50.692Z,12.63
2023-10-10T06:25:20.857Z,11.00
2023-10-10T06:27:55.411Z,12.00
2023-10-10T06:30:22.827Z,10.95
2023-10-10T06:32:49.954Z,10.75
2023-10-10T06:35:17.741Z,9.43
2023-10-10T06:37:46.652Z,10.15
2023-10-10T06:40:15.909Z,9.15
2023-10-10T06:42:48.382Z,9.68
2023-10-10T06:45:22.525Z,10.80
2023-10-10T06:47:52.479Z,9.77
2023-10-10T06:50:23.107Z,9.48
2023-10-10T06:52:53.545Z,9.10
2023-10-10T06:55:24.522Z,10.00
2023-10-10T06:57:59.037Z,7.85
2023-10-10T07:00:46.901Z,8.13
2023-10-10T07:03:31.449Z,8.73
2023-10-10T07:05:58.340Z,9.20
2023-10-10T07:08:27.620Z,9.60
2023-10-10T07:10:54.822Z,9.05
2023-10-10T07:13:22.250Z,9.38
2023-10-10T07:15:53.303Z,9.25
2023-10-10T07:18:26.973Z,9.10
2023-10-10T07:21:05.857Z,9.55
2023-10-10T07:23:40.563Z,8.93
2023-10-10T07:26:21.755Z,9.25
2023-10-10T07:28:49.847Z,9.70
2023-10-10T07:31:24.358Z,9.10
2023-10-10T07:34:15.515Z,9.52
2023-10-10T07:36:45.045Z,9.82
2023-10-10T07:39:30.416Z,9.60
2023-10-10T07:41:58.476Z,9.70
2023-10-10T07:44:26.924Z,9.25
2023-10-10T07:47:21.252Z,9.35
2023-10-10T07:49:52.377Z,10.18
2023-10-10T07:52:21.579Z,9.82
2023-10-10T07:54:53.003Z,10.05
2023-10-10T07:57:23.744Z,10.18
2023-10-10T07:59:56.585Z,9.55
2023-10-10T08:02:32.744Z,8.68
2023-10-10T08:05:10.691Z,9.15
2023-10-10T08:07:38.218Z,10.35
2023-10-10T08:10:15.301Z,10.68
2023-10-10T08:12:43.229Z,10.20
2023-10-10T08:15:26.137Z,10.52
2023-10-10T08:17:55.912Z,11.07
2023-10-10T08:20:56.987Z,9.65
2023-10-10T08:23:25.972Z,11.20
2023-10-10T08:25:53.794Z,10.82
2023-10-10T08:28:22.396Z,10.57
2023-10-10T08:30:56.307Z,10.93
2023-10-10T08:33:23.264Z,11.07
2023-10-10T08:35:51.570Z,10.60
2023-10-10T08:38:22.112Z,10.75
2023-10-10T08:40:59.880Z,10.38
2023-10-10T08:43:32.638Z,10.85
2023-10-10T08:46:05.200Z,10.98
2023-10-10T08:48:35.280Z,11.90
2023-10-10T08:51:05.483Z,9.95
2023-10-10T08:53:36.612Z,11.80
2023-10-10T08:56:04.243Z,11.43
2023-10-10T08:58:34.621Z,11.77
2023-10-10T09:01:03.486Z,11.48
2023-10-10T09:03:36.007Z,12.73
2023-10-10T09:06:17.302Z,11.43
2023-10-10T09:08:45.158Z,11.57
2023-10-10T09:11:13.034Z,10.80
2023-10-10T09:13:52.674Z,12.88
2023-10-10T09:16:42.159Z,12.90
2023-10-10T09:19:12.675Z,12.32
2023-10-10T09:21:51.750Z,11.80
2023-10-10T09:24:30.612Z,12.75
2023-10-10T09:26:57.984Z,12.63
2023-10-10T09:29:47.466Z,12.98
2023-10-10T09:32:15.236Z,13.13
2023-10-10T09:34:42.998Z,12.95
2023-10-10T09:37:12.325Z,13.35
2023-10-10T09:39:39.132Z,12.23
2023-10-10T09:42:25.086Z,12.75
2023-10-10T09:45:15.654Z,14.00
2023-10-10T09:47:43.827Z,13.20
2023-10-10T09:50:23.918Z,11.32
2023-10-10T09:52:55.362Z,12.50
2023-10-10T09:55:26.006Z,14.75
2023-10-10T09:58:08.979Z,13.63
2023-10-10T10:00:42.452Z,13.32
2023-10-10T10:03:30.014Z,13.57
2023-10-10T10:06:28.911Z,13.68
2023-10-10T10:09:20.691Z,12.65
2023-10-10T10:12:11.634Z,12.13
2023-10-10T10:14:48.941Z,12.00
2023-10-10T10:17:47.178Z,13.43
2023-10-10T10:20:23.542Z,15.50
2023-10-10T10:22:54.481Z,13.07
2023-10-10T10:25:26.345Z,13.50
2023-10-10T10:28:01.579Z,12.07
2023-10-10T10:30:28.637Z,12.48
2023-10-10T10:32:59.754Z,12.52
2023-10-10T10:35:47.551Z,11.38
2023-10-10T10:38:14.538Z,11.70
2023-10-10T10:40:42.023Z,11.55
2023-10-10T10:43:15.306Z,12.48
2023-10-10T10:45:46.565Z,12.85
2023-10-10T10:48:34.351Z,12.48
2023-10-10T10:51:26.699Z,12.93
2023-10-10T10:54:00.471Z,11.25
2023-10-10T10:56:31.615Z,11.68
2023-10-10T10:59:15.821Z,10.82
2023-10-10T11:01:53.860Z,13.30
2023-10-10T11:04:41.773Z,13.77
2023-10-10T11:07:09.253Z,12.20
2023-10-10T11:09:45.175Z,11.32
2023-10-10T11:12:14.460Z,10.82
2023-10-10T11:14:48.263Z,11.13
2023-10-10T11:17:19.761Z,9.98
2023-10-10T11:19:48.803Z,10.38
2023-10-10T11:22:36.058Z,10.82
2023-10-10T11:25:06.041Z,11.35
2023-10-10T11:27:45.618Z,10.00
2023-10-10T11:30:13.824Z,11.05
2023-10-10T11:32:48.389Z,9.63
2023-10-10T11:35:27.219Z,10.10
2023-10-10T11:38:00.852Z,9.60
2023-10-10T11:40:31.659Z,9.27
2023-10-10T11:43:06.681Z,9.00
2023-10-10T11:45:52.249Z,10.18
2023-10-10T11:48:19.315Z,9.20
2023-10-10T11:50:54.340Z,8.60
2023-10-10T11:53:28.774Z,8.82
2023-10-10T11:55:56.598Z,9.57
2023-10-10T11:58:37.126Z,9.10
2023-10-10T12:01:14.298Z,9.77
2023-10-10T12:03:43.080Z,8.45
2023-10-10T12:06:21.072Z,9.30
2023-10-10T12:08:52.450Z,8.88
2023-10-10T12:11:24.358Z,8.60
2023-10-10T12:13:52.570Z,10.40
2023-10-10T12:16:24.733Z,9.90
2023-10-10T12:18:53.976Z,9.15
2023-10-10T12:21:22.763Z,9.00
2023-10-10T12:23:55.273Z,9.38
2023-10-10T12:26:25.135Z,9.15
2023-10-10T12:28:54.737Z,9.07
2023-10-10T12:31:23.317Z,10.25
2023-10-10T12:33:51.316Z,9.85
2023-10-10T12:36:19.205Z,9.60
2023-10-10T12:38:50.187Z,9.75
2023-10-10T12:41:22.570Z,23.92
2023-10-10T12:43:53.098Z,9.83
2023-10-10T12:46:22.786Z,11.85
2023-10-10T12:48:53.432Z,10.77
2023-10-10T12:51:24.289Z,10.18
2023-10-10T12:54:01.294Z,10.45
2023-10-10T12:56:30.021Z,14.13
2023-10-10T12:59:23.713Z,15.73
2023-10-10T13:01:57.466Z,32.85
2023-10-10T13:04:31.317Z,11.43
2023-10-10T13:07:04.907Z,10.02
2023-10-10T13:09:33.201Z,9.82
2023-10-10T13:12:04.059Z,10.30
2023-10-10T13:14:34.626Z,11.15
2023-10-10T13:17:22.087Z,11.23
2023-10-10T13:19:50.251Z,11.02
2023-10-10T13:22:22.189Z,11.32
2023-10-10T13:24:50.335Z,10.20
2023-10-10T13:27:18.837Z,11.75
2023-10-10T13:29:45.942Z,14.40
2023-10-10T13:32:12.779Z,12.15
2023-10-10T13:34:39.700Z,10.75
2023-10-10T13:37:08.760Z,11.18
2023-10-10T13:39:45.106Z,9.52
2023-10-10T13:42:15.811Z,10.10
2023-10-10T13:44:43.678Z,10.43
2023-10-10T13:47:11.426Z,10.80
2023-10-10T13:49:45.604Z,9.45
2023-10-10T13:52:13.892Z,9.55
2023-10-10T13:54:41.040Z,10.25
2023-10-10T13:57:08.752Z,9.77
2023-10-10T13:59:35.690Z,9.80
2023-10-10T14:02:05.555Z,10.50
2023-10-10T14:04:47.791Z,9.63
2023-10-10T14:07:18.521Z,8.95
2023-10-10T14:10:02.505Z,8.48
2023-10-10T14:12:33.251Z,9.00
2023-10-10T14:15:02.390Z,8.70
2023-10-10T14:17:29.498Z,9.93
2023-10-10T14:19:56.468Z,9.23
2023-10-10T14:22:28.035Z,8.45
2023-10-10T14:24:59.592Z,11.13
2023-10-10T14:27:27.774Z,8.88
2023-10-10T14:29:58.373Z,8.25
2023-10-10T14:32:38.732Z,8.18
2023-10-10T14:35:07.764Z,8.43
2023-10-10T14:37:49.939Z,8.07
2023-10-10T14:40:24.428Z,8.48
2023-10-10T14:42:55.432Z,8.43
2023-10-10T14:45:29.742Z,8.32
2023-10-10T14:47:56.823Z,8.07
2023-10-10T14:50:24.533Z,6.97
2023-10-10T14:52:52.834Z,7.85
2023-10-10T14:55:26.688Z,8.27
2023-10-10T14:57:57.529Z,13.93
2023-10-10T15:00:26.011Z,7.85
2023-10-10T15:02:54.823Z,7.63
2023-10-10T15:05:24.773Z,8.85
2023-10-10T15:07:53.860Z,8.48
2023-10-10T15:10:25.560Z,8.20
2023-10-10T15:12:54.485Z,8.20
2023-10-10T15:15:24.682Z,8.57
2023-10-10T15:17:52.291Z,8.43
2023-10-10T15:20:19.574Z,8.85
2023-10-10T15:22:47.141Z,7.53
2023-10-10T15:25:14.017Z,8.13
2023-10-10T15:27:42.633Z,7.95
2023-10-10T15:30:10.361Z,8.77
2023-10-10T15:32:48.378Z,9.98
2023-10-10T15:35:18.509Z,8.05
2023-10-10T15:37:45.642Z,7.65
2023-10-10T15:40:14.485Z,7.85
2023-10-10T15:42:41.828Z,8.20
2023-10-10T15:45:09.103Z,8.82
2023-10-10T15:47:36.067Z,8.35
2023-10-10T15:50:03.704Z,8.63
2023-10-10T15:52:34.813Z,9.20
2023-10-10T15:55:06.520Z,7.90
2023-10-10T15:57:33.337Z,8.77
2023-10-10T16:00:00.045Z,9.02
2023-10-10T16:02:26.834Z,8.25
2023-10-10T16:04:53.879Z,8.55
2023-10-10T16:07:21.158Z,7.90
2023-10-10T16:09:48.157Z,9.55
2023-10-10T16:12:15.065Z,8.95
2023-10-10T16:14:42.352Z,8.68
2023-10-10T16:17:09.259Z,11.13
2023-10-10T16:19:37.424Z,9.02
2023-10-10T16:22:06.147Z,9.52
2023-10-10T16:24:33.232Z,9.20
2023-10-10T16:27:03.667Z,8.93
2023-10-10T16:29:36.733Z,9.45
2023-10-10T16:34:43.455Z,9.63
2023-10-10T16:37:15.776Z,10.45
2023-10-10T16:39:47.460Z,9.93
2023-10-10T16:42:24.491Z,8.65
2023-10-10T16:44:54.560Z,8.40
2023-10-10T16:47:22.911Z,9.45
2023-10-10T16:49:52.445Z,10.65
2023-10-10T16:52:20.930Z,9.70
2023-10-10T16:54:52.245Z,8.80
2023-10-10T16:57:22.359Z,9.10
2023-10-10T16:59:49.105Z,9.20
2023-10-10T17:02:16.112Z,9.32
2023-10-10T17:04:44.573Z,8.35
2023-10-10T17:07:12.550Z,9.23
2023-10-10T17:09:40.020Z,9.38
2023-10-10T17:12:07.387Z,8.60
2023-10-10T17:14:38.386Z,9.45
2023-10-10T17:17:05.216Z,9.88
2023-10-10T17:19:32.833Z,11.05
2023-10-10T17:22:00.306Z,10.90
2023-10-10T17:24:27.552Z,11.13
2023-10-10T17:26:55.185Z,12.55
2023-10-10T17:29:24.744Z,15.48
2023-10-10T17:31:54.269Z,14.55
2023-10-10T17:34:23.142Z,16.02
2023-10-10T17:36:51.676Z,16.08
2023-10-10T17:39:18.651Z,15.82
2023-10-10T17:41:48.979Z,15.27
2023-10-10T17:44:18.870Z,17.30
2023-10-10T17:46:47.365Z,17.73
2023-10-10T17:49:15.461Z,16.50
2023-10-10T17:51:45.228Z,17.52
2023-10-10T17:54:12.698Z,17.85
2023-10-10T17:56:40.065Z,18.55
2023-10-10T17:59:07.784Z,18.52
2023-10-10T18:01:35.534Z,18.83
2023-10-10T18:04:07.022Z,18.52
